Time;durP1;ratioP1;P1;durP2;ratioP2;P2;SDS_P1;SDS_P2;PMS_P1;PMS_P2;Temp;Humidity;BMP_temperature;BMP_pressure;BME280_temperature;BME280_humidity;BME280_pressure;Samples;Min_cycle;Max_cycle;Signal;HPM_P1;HPM_P2
2023/05/26 00:01:52;;;;;;;12.10;6.93;;;;;;;;;;5031554;28;20435;-73
2023/05/26 00:04:21;;;;;;;12.38;6.18;;;;;;;;;;5032672;28;20368;-73
2023/05/26 00:06:52;;;;;;;10.98;6.38;;;;;;;;;;5031900;28;20050;-70
2023/05/26 00:09:19;;;;;;;10.02;6.20;;;;;;;;;;5032096;28;20048;-71
2023/05/26 00:11:49;;;;;;;11.10;6.28;;;;;;;;;;5031510;28;20042;-71
2023/05/26 00:14:16;;;;;;;11.30;5.78;;;;;;;;;;5032018;28;20049;-71
2023/05/26 00:16:43;;;;;;;10.82;6.38;;;;;;;;;;5031418;28;20470;-71
2023/05/26 00:19:09;;;;;;;10.00;6.78;;;;;;;;;;5031937;28;20041;-71
2023/05/26 00:21:36;;;;;;;13.98;6.72;;;;;;;;;;5030966;28;20418;-73
2023/05/26 00:24:05;;;;;;;10.52;7.32;;;;;;;;;;5031382;28;20136;-71
2023/05/26 00:26:32;;;;;;;11.15;6.53;;;;;;;;;;5031493;28;20064;-72
2023/05/26 00:29:00;;;;;;;10.55;6.97;;;;;;;;;;5030710;28;20041;-71
2023/05/26 00:31:26;;;;;;;9.20;6.50;;;;;;;;;;5031099;28;20053;-73
2023/05/26 00:33:53;;;;;;;9.32;6.20;;;;;;;;;;5031021;28;20388;-71
2023/05/26 00:36:19;;;;;;;10.63;6.93;;;;;;;;;;5031090;28;20442;-70
2023/05/26 00:38:46;;;;;;;11.35;6.57;;;;;;;;;;5030981;28;20055;-71
2023/05/26 00:41:15;;;;;;;11.55;6.22;;;;;;;;;;5031083;28;20056;-71
2023/05/26 00:43:42;;;;;;;10.60;6.68;;;;;;;;;;5030828;28;20065;-69
2023/05/26 00:46:08;;;;;;;10.82;6.93;;;;;;;;;;5031251;28;20083;-70
2023/05/26 00:48:35;;;;;;;13.13;7.40;;;;;;;;;;5030526;28;20487;-71
2023/05/26 00:51:05;;;;;;;11.45;6.72;;;;;;;;;;5030562;28;20056;-71
2023/05/26 00:53:31;;;;;;;12.23;6.85;;;;;;;;;;5030992;28;20504;-71
2023/05/26 00:55:58;;;;;;;10.27;6.72;;;;;;;;;;5031265;28;20045;-71
2023/05/26 00:58:27;;;;;;;11.93;7.03;;;;;;;;;;5031040;28;20494;-72
2023/05/26 01:00:54;;;;;;;10.57;6.80;;;;;;;;;;5030247;28;20403;-72
2023/05/26 01:03:20;;;;;;;11.50;6.40;;;;;;;;;;5030894;28;20132;-70
2023/05/26 01:05:47;;;;;;;13.52;6.50;;;;;;;;;;5030321;28;20045;-70
2023/05/26 01:08:14;;;;;;;9.27;6.28;;;;;;;;;;5030936;28;20045;-72
2023/05/26 01:10:40;;;;;;;9.73;6.47;;;;;;;;;;5029823;28;20052;-70
2023/05/26 01:13:12;;;;;;;11.00;6.00;;;;;;;;;;5031123;28;20041;-70
2023/05/26 01:15:47;;;;;;;13.02;6.65;;;;;;;;;;5030574;28;20056;-70
2023/05/26 01:18:16;;;;;;;13.10;7.07;;;;;;;;;;5031234;28;20429;-70
2023/05/26 01:20:45;;;;;;;9.40;6.53;;;;;;;;;;5029771;28;20487;-70
2023/05/26 01:23:42;;;;;;;14.15;7.03;;;;;;;;;;5031034;28;20427;-71
2023/05/26 01:26:22;;;;;;;11.80;7.03;;;;;;;;;;5030080;28;20099;-70
2023/05/26 01:28:53;;;;;;;9.40;6.53;;;;;;;;;;5030667;28;20041;-71
2023/05/26 01:31:20;;;;;;;11.13;6.88;;;;;;;;;;5029591;28;20164;-70
2023/05/26 01:33:47;;;;;;;12.90;7.03;;;;;;;;;;5030407;28;20045;-71
2023/05/26 01:36:13;;;;;;;13.38;6.32;;;;;;;;;;5030088;28;20073;-72
2023/05/26 01:38:40;;;;;;;11.93;7.38;;;;;;;;;;5030205;28;20049;-70
2023/05/26 01:41:13;;;;;;;10.02;6.38;;;;;;;;;;5029808;28;20041;-72
2023/05/26 01:43:44;;;;;;;12.55;6.93;;;;;;;;;;5029905;28;20050;-71
2023/05/26 01:46:21;;;;;;;10.85;7.40;;;;;;;;;;5030230;28;20049;-73
2023/05/26 01:48:49;;;;;;;11.45;7.07;;;;;;;;;;5029719;28;20057;-71
2023/05/26 01:51:17;;;;;;;13.40;7.35;;;;;;;;;;5013706;28;20060;-71
2023/05/26 01:53:48;;;;;;;13.65;6.45;;;;;;;;;;5009834;28;20050;-71
2023/05/26 01:56:15;;;;;;;12.52;7.63;;;;;;;;;;5010148;28;20472;-70
2023/05/26 01:58:45;;;;;;;11.48;7.50;;;;;;;;;;5009504;28;20496;-71
2023/05/26 02:01:13;;;;;;;11.27;6.82;;;;;;;;;;5010063;28;20042;-70
2023/05/26 02:03:41;;;;;;;9.88;6.55;;;;;;;;;;5009675;28;20092;-72
2023/05/26 02:06:08;;;;;;;12.88;7.28;;;;;;;;;;5010085;28;20057;-71
2023/05/26 02:08:37;;;;;;;10.55;7.05;;;;;;;;;;5009916;28;20054;-70
2023/05/26 02:11:04;;;;;;;14.02;7.25;;;;;;;;;;5022766;28;20552;-71
2023/05/26 02:13:31;;;;;;;14.07;7.47;;;;;;;;;;5030355;28;20052;-70
2023/05/26 02:15:58;;;;;;;9.75;7.13;;;;;;;;;;5029563;28;20053;-72
2023/05/26 02:18:26;;;;;;;13.40;7.45;;;;;;;;;;5031156;28;20050;-70
2023/05/26 02:20:53;;;;;;;11.82;7.50;;;;;;;;;;5022880;28;20050;-72
2023/05/26 02:23:20;;;;;;;12.57;7.28;;;;;;;;;;5030352;28;20053;-72
2023/05/26 02:25:46;;;;;;;16.55;8.13;;;;;;;;;;5031051;28;20052;-70
2023/05/26 02:28:13;;;;;;;12.27;7.68;;;;;;;;;;5029890;28;20052;-70
2023/05/26 02:30:39;;;;;;;10.75;7.15;;;;;;;;;;5029182;28;20416;-71
2023/05/26 02:33:06;;;;;;;14.85;7.88;;;;;;;;;;5029280;28;20061;-70
2023/05/26 02:35:34;;;;;;;11.85;8.05;;;;;;;;;;5029544;28;20049;-70
2023/05/26 02:38:01;;;;;;;16.73;8.10;;;;;;;;;;5030735;28;20041;-70
2023/05/26 02:40:27;;;;;;;13.65;7.80;;;;;;;;;;5030391;28;20045;-71
2023/05/26 02:43:01;;;;;;;12.48;6.82;;;;;;;;;;5030004;28;20140;-71
2023/05/26 02:45:29;;;;;;;14.10;7.80;;;;;;;;;;5011005;28;20118;-71
2023/05/26 02:47:55;;;;;;;12.27;7.18;;;;;;;;;;5026815;28;20080;-71
2023/05/26 02:50:23;;;;;;;14.10;7.53;;;;;;;;;;5029148;28;20061;-71
2023/05/26 02:52:50;;;;;;;14.35;7.50;;;;;;;;;;5031926;28;20052;-73
2023/05/26 02:55:18;;;;;;;12.57;7.68;;;;;;;;;;5033258;28;20057;-71
2023/05/26 02:57:45;;;;;;;14.45;8.02;;;;;;;;;;5036610;28;20380;-70
2023/05/26 03:00:13;;;;;;;11.75;7.78;;;;;;;;;;5034954;28;20041;-72
2023/05/26 03:02:40;;;;;;;15.00;7.70;;;;;;;;;;5036014;28;20085;-70
2023/05/26 03:05:15;;;;;;;13.93;7.85;;;;;;;;;;5035241;28;20056;-68
2023/05/26 03:07:42;;;;;;;15.65;8.13;;;;;;;;;;5045507;22;20042;-67
2023/05/26 03:10:10;;;;;;;14.82;7.80;;;;;;;;;;5032123;28;20045;-67
2023/05/26 03:12:37;;;;;;;14.85;7.78;;;;;;;;;;5032954;28;20526;-67
2023/05/26 03:15:04;;;;;;;13.00;7.57;;;;;;;;;;5032432;28;20068;-66
2023/05/26 03:17:30;;;;;;;16.67;8.75;;;;;;;;;;5032992;28;20103;-67
2023/05/26 03:19:57;;;;;;;15.35;8.32;;;;;;;;;;5025022;28;20038;-66
2023/05/26 03:22:24;;;;;;;14.45;8.85;;;;;;;;;;5012151;28;20115;-68
2023/05/26 03:24:50;;;;;;;11.60;7.65;;;;;;;;;;5012840;28;20137;-67
2023/05/26 03:27:22;;;;;;;13.25;7.75;;;;;;;;;;5012113;28;20046;-67
2023/05/26 03:29:48;;;;;;;12.00;7.57;;;;;;;;;;5012579;28;20080;-68
2023/05/26 03:32:15;;;;;;;13.55;8.15;;;;;;;;;;5012449;28;20514;-67
2023/05/26 03:34:42;;;;;;;13.02;8.23;;;;;;;;;;5012509;28;20045;-66
2023/05/26 03:37:08;;;;;;;12.77;7.50;;;;;;;;;;5012210;28;20050;-67
2023/05/26 03:39:35;;;;;;;14.63;8.98;;;;;;;;;;5012217;28;20050;-67
2023/05/26 03:42:01;;;;;;;17.05;8.20;;;;;;;;;;5029924;28;20053;-67
2023/05/26 03:44:29;;;;;;;14.68;8.13;;;;;;;;;;5031841;28;20049;-67
2023/05/26 03:46:56;;;;;;;16.70;8.13;;;;;;;;;;5032242;28;20054;-67
2023/05/26 03:49:22;;;;;;;13.30;7.95;;;;;;;;;;5027555;28;20547;-67
2023/05/26 03:51:50;;;;;;;14.85;8.48;;;;;;;;;;5011984;28;20050;-67
2023/05/26 03:54:16;;;;;;;17.77;7.75;;;;;;;;;;5011679;28;20061;-67
2023/05/26 03:56:43;;;;;;;16.48;7.60;;;;;;;;;;5012261;28;20046;-67
2023/05/26 03:59:09;;;;;;;16.00;7.88;;;;;;;;;;5011598;28;20057;-67
2023/05/26 04:01:37;;;;;;;16.48;7.93;;;;;;;;;;5011933;28;20050;-67
2023/05/26 04:04:04;;;;;;;13.50;8.07;;;;;;;;;;5010827;28;20049;-67
2023/05/26 04:06:30;;;;;;;14.05;7.68;;;;;;;;;;5012060;28;20530;-67
2023/05/26 04:08:59;;;;;;;16.38;7.68;;;;;;;;;;5011949;28;20050;-67
2023/05/26 04:11:26;;;;;;;12.40;7.22;;;;;;;;;;5011281;28;20046;-67
2023/05/26 04:13:53;;;;;;;14.15;7.78;;;;;;;;;;5012126;28;20050;-67
2023/05/26 04:16:19;;;;;;;16.17;7.70;;;;;;;;;;5011534;28;20057;-67
2023/05/26 04:18:47;;;;;;;16.10;9.00;;;;;;;;;;5011993;28;20057;-67
2023/05/26 04:21:14;;;;;;;13.80;7.60;;;;;;;;;;5027311;28;20049;-67
2023/05/26 04:23:40;;;;;;;16.25;8.20;;;;;;;;;;5031663;28;20092;-67
2023/05/26 04:26:08;;;;;;;13.93;7.50;;;;;;;;;;5030882;28;20415;-67
2023/05/26 04:28:34;;;;;;;12.55;7.82;;;;;;;;;;5031517;28;20507;-67
2023/05/26 04:31:03;;;;;;;12.40;7.22;;;;;;;;;;5030523;28;20552;-67
2023/05/26 04:33:30;;;;;;;15.00;7.10;;;;;;;;;;5031663;28;20057;-67
2023/05/26 04:35:58;;;;;;;12.70;8.02;;;;;;;;;;5031157;28;20103;-67
2023/05/26 04:38:25;;;;;;;14.45;8.23;;;;;;;;;;5031081;28;20056;-67
2023/05/26 04:40:52;;;;;;;12.63;7.13;;;;;;;;;;5030882;28;20080;-67
2023/05/26 04:43:20;;;;;;;13.05;8.15;;;;;;;;;;5030960;28;20045;-67
2023/05/26 04:45:47;;;;;;;15.50;8.13;;;;;;;;;;5030960;28;20100;-67
2023/05/26 04:48:13;;;;;;;14.25;7.38;;;;;;;;;;5030446;28;20284;-67
2023/05/26 04:50:40;;;;;;;15.13;8.02;;;;;;;;;;5018040;28;20133;-67
2023/05/26 04:53:08;;;;;;;14.05;7.05;;;;;;;;;;5027385;28;20049;-67
2023/05/26 04:55:36;;;;;;;12.18;6.82;;;;;;;;;;5024134;28;20042;-67
2023/05/26 04:58:03;;;;;;;13.45;7.18;;;;;;;;;;5010248;28;20046;-67
2023/05/26 05:00:31;;;;;;;13.88;7.38;;;;;;;;;;5009662;28;20041;-67
2023/05/26 05:02:57;;;;;;;14.75;7.18;;;;;;;;;;5010441;28;20052;-67
2023/05/26 05:05:24;;;;;;;18.23;7.65;;;;;;;;;;5010771;28;20403;-67
2023/05/26 05:07:51;;;;;;;14.20;7.95;;;;;;;;;;5011137;28;20526;-67
2023/05/26 05:10:19;;;;;;;13.05;7.20;;;;;;;;;;5010198;28;20475;-67
2023/05/26 05:12:45;;;;;;;12.15;7.80;;;;;;;;;;5011081;28;20442;-67
2023/05/26 05:15:12;;;;;;;14.50;7.53;;;;;;;;;;5009979;28;20042;-67
2023/05/26 05:17:38;;;;;;;12.43;7.82;;;;;;;;;;5010416;28;20049;-68
2023/05/26 05:20:06;;;;;;;13.60;8.13;;;;;;;;;;5008935;28;20056;-67
2023/05/26 05:22:33;;;;;;;13.95;7.20;;;;;;;;;;5010928;28;20046;-67
2023/05/26 05:24:59;;;;;;;15.70;8.10;;;;;;;;;;5009984;28;20454;-68
2023/05/26 05:27:27;;;;;;;14.63;8.85;;;;;;;;;;5010643;28;20050;-67
2023/05/26 05:29:54;;;;;;;12.90;8.43;;;;;;;;;;5010075;28;20519;-67
2023/05/26 05:32:20;;;;;;;13.05;7.93;;;;;;;;;;5010341;28;20056;-64
2023/05/26 05:34:47;;;;;;;13.27;7.45;;;;;;;;;;5009941;28;20050;-64
2023/05/26 05:37:13;;;;;;;11.30;7.60;;;;;;;;;;5009985;28;20061;-64
2023/05/26 05:39:40;;;;;;;15.45;8.02;;;;;;;;;;5010394;28;20500;-64
2023/05/26 05:42:07;;;;;;;16.92;7.45;;;;;;;;;;5010210;28;20045;-64
2023/05/26 05:44:35;;;;;;;14.25;7.30;;;;;;;;;;5010428;28;20440;-64
2023/05/26 05:47:01;;;;;;;12.88;7.28;;;;;;;;;;5010058;28;20065;-64
2023/05/26 05:49:28;;;;;;;14.07;7.75;;;;;;;;;;5014158;28;20418;-64
2023/05/26 05:51:54;;;;;;;14.98;7.32;;;;;;;;;;5029566;28;20045;-64
2023/05/26 05:54:21;;;;;;;11.85;7.80;;;;;;;;;;5030175;28;20049;-65
2023/05/26 05:56:47;;;;;;;13.02;7.43;;;;;;;;;;5030026;28;20499;-64
2023/05/26 05:59:14;;;;;;;14.98;7.80;;;;;;;;;;5028991;28;20060;-64
2023/05/26 06:01:42;;;;;;;14.05;6.78;;;;;;;;;;5029851;28;20041;-64
2023/05/26 06:04:08;;;;;;;11.15;7.30;;;;;;;;;;5029508;28;20415;-64
2023/05/26 06:06:36;;;;;;;14.38;7.25;;;;;;;;;;5030163;28;20471;-64
2023/05/26 06:09:02;;;;;;;10.68;6.47;;;;;;;;;;5029618;28;20052;-64
2023/05/26 06:11:29;;;;;;;13.35;6.88;;;;;;;;;;5029615;28;20049;-64
2023/05/26 06:13:56;;;;;;;14.20;6.72;;;;;;;;;;5029091;28;20063;-65
2023/05/26 06:16:22;;;;;;;11.07;6.22;;;;;;;;;;5030001;28;20046;-65
2023/05/26 06:18:50;;;;;;;12.35;6.75;;;;;;;;;;5029466;28;20380;-65
2023/05/26 06:21:16;;;;;;;15.48;7.10;;;;;;;;;;5010235;28;20050;-65
2023/05/26 06:23:43;;;;;;;11.90;6.88;;;;;;;;;;5009957;28;20050;-65
2023/05/26 06:26:09;;;;;;;11.65;7.00;;;;;;;;;;5010301;28;20050;-65
2023/05/26 06:28:36;;;;;;;13.18;6.72;;;;;;;;;;5013977;28;20057;-65
2023/05/26 06:31:03;;;;;;;13.63;6.75;;;;;;;;;;5013040;28;20053;-65
2023/05/26 06:33:29;;;;;;;13.73;6.25;;;;;;;;;;5013957;28;20413;-65
2023/05/26 06:35:57;;;;;;;14.00;6.40;;;;;;;;;;5013290;28;20049;-64
2023/05/26 06:38:23;;;;;;;12.85;6.68;;;;;;;;;;5013931;28;20065;-65
2023/05/26 06:40:50;;;;;;;12.77;6.20;;;;;;;;;;5012518;28;20046;-65
2023/05/26 06:43:16;;;;;;;10.25;6.20;;;;;;;;;;5013606;28;20053;-64
2023/05/26 06:45:43;;;;;;;10.93;5.90;;;;;;;;;;5013204;28;20050;-65
2023/05/26 06:48:10;;;;;;;12.43;6.00;;;;;;;;;;5014022;28;20057;-65
2023/05/26 06:50:36;;;;;;;11.75;6.28;;;;;;;;;;5011845;28;20523;-64
2023/05/26 06:53:04;;;;;;;10.55;5.60;;;;;;;;;;5013603;28;20061;-65
2023/05/26 06:55:31;;;;;;;11.05;5.20;;;;;;;;;;5013020;28;20133;-65
2023/05/26 06:57:57;;;;;;;11.57;6.00;;;;;;;;;;5012925;28;20065;-64
2023/05/26 07:00:24;;;;;;;11.13;5.75;;;;;;;;;;5013063;28;20052;-65
2023/05/26 07:02:50;;;;;;;10.25;5.45;;;;;;;;;;5012718;28;20050;-66
2023/05/26 07:05:17;;;;;;;12.45;5.72;;;;;;;;;;5024769;28;20498;-64
2023/05/26 07:07:43;;;;;;;12.93;5.90;;;;;;;;;;5029483;28;20041;-65
2023/05/26 07:10:11;;;;;;;9.77;5.68;;;;;;;;;;5029388;28;20045;-65
2023/05/26 07:12:39;;;;;;;11.65;5.78;;;;;;;;;;5031887;28;20073;-65
2023/05/26 07:15:06;;;;;;;11.38;5.90;;;;;;;;;;5020664;28;20561;-66
2023/05/26 07:17:33;;;;;;;11.85;5.72;;;;;;;;;;5010336;28;20054;-66
2023/05/26 07:19:59;;;;;;;9.75;5.68;;;;;;;;;;5010383;28;20050;-66
2023/05/26 07:22:26;;;;;;;12.75;5.85;;;;;;;;;;5012259;28;20439;-66
2023/05/26 07:24:52;;;;;;;9.63;5.22;;;;;;;;;;5010350;28;20045;-66
2023/05/26 07:27:20;;;;;;;14.23;5.85;;;;;;;;;;5012339;28;20041;-67
2023/05/26 07:29:47;;;;;;;10.45;5.25;;;;;;;;;;5020848;28;20416;-66
2023/05/26 07:32:13;;;;;;;10.57;5.32;;;;;;;;;;5010087;28;20050;-67
2023/05/26 07:34:40;;;;;;;11.95;5.45;;;;;;;;;;5024049;28;20053;-68
2023/05/26 07:37:06;;;;;;;9.82;5.03;;;;;;;;;;5022606;28;20057;-67
2023/05/26 07:39:33;;;;;;;15.13;5.68;;;;;;;;;;5012995;28;20104;-66
2023/05/26 07:41:59;;;;;;;12.25;4.80;;;;;;;;;;5021456;28;20150;-67
2023/05/26 07:44:27;;;;;;;13.63;5.22;;;;;;;;;;5020649;28;20050;-66
2023/05/26 07:46:54;;;;;;;13.00;5.38;;;;;;;;;;5030331;28;20056;-67
2023/05/26 07:49:20;;;;;;;9.13;4.75;;;;;;;;;;5029006;28;20056;-68
2023/05/26 07:51:47;;;;;;;13.80;5.85;;;;;;;;;;5013724;28;20048;-67
2023/05/26 07:54:13;;;;;;;11.70;5.05;;;;;;;;;;5023306;28;20045;-66
2023/05/26 07:56:40;;;;;;;11.23;5.15;;;;;;;;;;5016187;28;20732;-66
2023/05/26 07:59:08;;;;;;;14.27;5.40;;;;;;;;;;5016939;28;20057;-67
2023/05/26 08:01:36;;;;;;;10.48;5.20;;;;;;;;;;5017858;28;20049;-67
2023/05/26 08:04:02;;;;;;;10.90;4.90;;;;;;;;;;5025490;28;20068;-65
2023/05/26 08:06:29;;;;;;;16.40;5.30;;;;;;;;;;5005793;28;20045;-67
2023/05/26 08:08:55;;;;;;;10.88;5.22;;;;;;;;;;5020134;28;20411;-65
2023/05/26 08:11:22;;;;;;;13.02;5.47;;;;;;;;;;5013547;28;20140;-65
2023/05/26 08:13:49;;;;;;;10.52;5.15;;;;;;;;;;5023087;28;20088;-67
2023/05/26 08:16:16;;;;;;;10.65;5.05;;;;;;;;;;5029936;28;20389;-68
2023/05/26 08:18:44;;;;;;;12.40;6.03;;;;;;;;;;5031449;28;20111;-65
2023/05/26 08:21:10;;;;;;;14.07;4.82;;;;;;;;;;5015323;28;20065;-64
2023/05/26 08:23:37;;;;;;;11.20;4.85;;;;;;;;;;5018103;28;20042;-68
2023/05/26 08:26:05;;;;;;;10.68;5.65;;;;;;;;;;5017957;28;20057;-66
2023/05/26 08:28:31;;;;;;;11.57;5.55;;;;;;;;;;5012191;28;20046;-66
2023/05/26 08:30:58;;;;;;;11.60;5.10;;;;;;;;;;5024002;28;20407;-67
2023/05/26 08:33:24;;;;;;;10.38;4.95;;;;;;;;;;5030340;28;20411;-65
2023/05/26 08:35:52;;;;;;;8.43;4.40;;;;;;;;;;5022512;28;20071;-66
2023/05/26 08:38:19;;;;;;;8.70;4.45;;;;;;;;;;5022465;28;20053;-68
2023/05/26 08:40:46;;;;;;;11.07;5.53;;;;;;;;;;5029061;28;20041;-68
2023/05/26 08:43:16;;;;;;;9.13;5.32;;;;;;;;;;5019939;28;20057;-68
2023/05/26 08:45:44;;;;;;;10.32;5.25;;;;;;;;;;5018920;28;20518;-68
2023/05/26 08:48:12;;;;;;;10.90;5.60;;;;;;;;;;5016654;28;20315;-69
2023/05/26 08:50:39;;;;;;;12.80;5.38;;;;;;;;;;5021675;28;20046;-68
2023/05/26 08:53:07;;;;;;;11.85;4.95;;;;;;;;;;5010584;28;20092;-68
2023/05/26 08:55:34;;;;;;;15.25;5.78;;;;;;;;;;5011044;28;20433;-69
2023/05/26 08:58:01;;;;;;;10.07;5.63;;;;;;;;;;5024489;28;20053;-67
2023/05/26 09:00:30;;;;;;;14.23;5.70;;;;;;;;;;5016744;28;20422;-69
2023/05/26 09:02:57;;;;;;;13.50;5.32;;;;;;;;;;5017970;28;20059;-66
2023/05/26 09:05:23;;;;;;;10.50;5.00;;;;;;;;;;5021975;28;20399;-67
2023/05/26 09:07:50;;;;;;;10.00;4.95;;;;;;;;;;5020101;28;20041;-66
2023/05/26 09:10:25;;;;;;;11.82;5.13;;;;;;;;;;5023515;28;20072;-68
2023/05/26 09:13:02;;;;;;;10.82;4.90;;;;;;;;;;5016260;28;20050;-67
2023/05/26 09:15:29;;;;;;;12.68;5.28;;;;;;;;;;5013509;28;20514;-67
2023/05/26 09:18:01;;;;;;;8.40;4.57;;;;;;;;;;5025803;28;20056;-68
2023/05/26 09:20:29;;;;;;;11.95;5.40;;;;;;;;;;5018466;28;20977;-67
2023/05/26 09:22:56;;;;;;;14.43;5.93;;;;;;;;;;5013632;28;20042;-66
2023/05/26 09:25:29;;;;;;;12.38;5.13;;;;;;;;;;5015861;28;20504;-68
2023/05/26 09:28:00;;;;;;;12.30;5.47;;;;;;;;;;5010623;28;20476;-68
2023/05/26 09:30:29;;;;;;;9.70;5.50;;;;;;;;;;5020651;28;20049;-66
2023/05/26 09:32:55;;;;;;;14.30;5.55;;;;;;;;;;5029291;28;20045;-67
2023/05/26 09:35:22;;;;;;;12.77;4.95;;;;;;;;;;5018282;28;20361;-68
2023/05/26 09:37:49;;;;;;;12.00;5.10;;;;;;;;;;5014782;28;20053;-65
2023/05/26 09:40:17;;;;;;;11.18;5.35;;;;;;;;;;5009346;28;20076;-65
2023/05/26 09:42:52;;;;;;;10.43;5.53;;;;;;;;;;5022304;28;20050;-68
2023/05/26 09:45:19;;;;;;;12.98;4.90;;;;;;;;;;5020434;28;20049;-63
2023/05/26 09:47:46;;;;;;;12.82;4.95;;;;;;;;;;5014028;28;20068;-63
2023/05/26 09:50:12;;;;;;;11.13;4.90;;;;;;;;;;5022100;28;20135;-64
2023/05/26 09:52:39;;;;;;;9.80;4.70;;;;;;;;;;5018351;28;20046;-64
2023/05/26 09:55:06;;;;;;;12.30;4.75;;;;;;;;;;5011433;28;20058;-65
2023/05/26 09:57:36;;;;;;;11.60;5.43;;;;;;;;;;5014740;28;20042;-65
2023/05/26 10:00:09;;;;;;;13.27;5.45;;;;;;;;;;5017715;28;20052;-66
2023/05/26 10:02:37;;;;;;;7.88;4.70;;;;;;;;;;5019823;28;20156;-64
2023/05/26 10:05:05;;;;;;;9.15;5.03;;;;;;;;;;5021594;28;20046;-67
2023/05/26 10:07:32;;;;;;;9.27;5.15;;;;;;;;;;5032677;28;20136;-65
2023/05/26 10:10:00;;;;;;;12.13;4.43;;;;;;;;;;5017501;28;20057;-65
2023/05/26 10:12:29;;;;;;;9.18;5.30;;;;;;;;;;5017055;28;20053;-65
2023/05/26 10:14:56;;;;;;;10.75;4.63;;;;;;;;;;5034070;28;20490;-65
2023/05/26 10:17:25;;;;;;;10.68;4.85;;;;;;;;;;5032273;28;20411;-65
2023/05/26 10:19:53;;;;;;;12.45;5.25;;;;;;;;;;5033242;28;20042;-66
2023/05/26 10:22:25;;;;;;;11.98;5.13;;;;;;;;;;5048235;28;20045;-65
2023/05/26 10:24:59;;;;;;;10.25;4.70;;;;;;;;;;5052588;28;20053;-66
2023/05/26 10:27:32;;;;;;;8.32;4.47;;;;;;;;;;5015471;28;20092;-66
2023/05/26 10:30:05;;;;;;;9.75;4.80;;;;;;;;;;5014266;28;20045;-66
2023/05/26 10:32:47;;;;;;;10.32;5.32;;;;;;;;;;5013104;28;20087;-65
2023/05/26 10:35:26;;;;;;;12.45;5.18;;;;;;;;;;5019944;28;20064;-65
2023/05/26 10:37:57;;;;;;;10.88;4.90;;;;;;;;;;5031611;28;20418;-66
2023/05/26 10:40:29;;;;;;;9.83;5.07;;;;;;;;;;5020803;28;20057;-66
2023/05/26 10:43:03;;;;;;;11.35;4.88;;;;;;;;;;5013167;28;20054;-66
2023/05/26 10:45:34;;;;;;;8.50;4.82;;;;;;;;;;5013243;28;20398;-66
2023/05/26 10:48:07;;;;;;;11.73;5.00;;;;;;;;;;5029057;28;20046;-66
2023/05/26 10:51:04;;;;;;;10.80;4.80;;;;;;;;;;5020887;28;20053;-66
2023/05/26 10:53:32;;;;;;;11.23;4.90;;;;;;;;;;5027957;28;20049;-66
2023/05/26 10:56:02;;;;;;;9.25;5.32;;;;;;;;;;5033056;28;20057;-66
2023/05/26 10:58:33;;;;;;;10.20;4.75;;;;;;;;;;5029668;28;20045;-66
2023/05/26 11:01:01;;;;;;;9.15;4.65;;;;;;;;;;5028878;28;20049;-66
2023/05/26 11:03:37;;;;;;;11.18;4.95;;;;;;;;;;5024214;28;20099;-66
2023/05/26 11:06:05;;;;;;;9.13;5.15;;;;;;;;;;5015391;28;20127;-66
2023/05/26 11:08:37;;;;;;;13.32;5.10;;;;;;;;;;5012364;28;20045;-66
2023/05/26 11:11:05;;;;;;;12.02;4.78;;;;;;;;;;5010714;28;20050;-67
2023/05/26 11:14:00;;;;;;;10.82;5.28;;;;;;;;;;5011683;28;20056;-66
2023/05/26 11:16:27;;;;;;;9.70;5.07;;;;;;;;;;4998756;28;20050;-65
2023/05/26 11:18:57;;;;;;;8.88;4.65;;;;;;;;;;5011301;28;20050;-66
2023/05/26 11:21:26;;;;;;;11.85;4.90;;;;;;;;;;5011546;28;20049;-66
2023/05/26 11:23:54;;;;;;;10.45;4.75;;;;;;;;;;5011916;28;20084;-66
2023/05/26 11:26:22;;;;;;;9.27;5.00;;;;;;;;;;5012552;28;20050;-65
2023/05/26 11:28:49;;;;;;;9.88;4.82;;;;;;;;;;5012426;28;20053;-65
2023/05/26 11:31:18;;;;;;;11.35;5.00;;;;;;;;;;5012402;28;20081;-65
2023/05/26 11:33:45;;;;;;;10.18;4.72;;;;;;;;;;5012325;28;20056;-65
2023/05/26 11:36:15;;;;;;;9.77;4.65;;;;;;;;;;5010948;28;20050;-65
2023/05/26 11:38:42;;;;;;;10.60;4.38;;;;;;;;;;5031441;28;20152;-65
2023/05/26 11:41:10;;;;;;;9.55;4.57;;;;;;;;;;5031598;28;20415;-65
2023/05/26 11:43:38;;;;;;;10.73;4.70;;;;;;;;;;5026901;28;20052;-65
2023/05/26 11:46:07;;;;;;;11.80;5.00;;;;;;;;;;5022302;28;20052;-65
2023/05/26 11:48:36;;;;;;;10.07;4.78;;;;;;;;;;5012136;28;20092;-65
2023/05/26 11:51:07;;;;;;;11.73;5.38;;;;;;;;;;5011688;28;20049;-64
2023/05/26 11:53:35;;;;;;;11.10;5.00;;;;;;;;;;5011925;28;20407;-65
2023/05/26 11:56:07;;;;;;;10.70;4.03;;;;;;;;;;5011646;28;20052;-65
2023/05/26 11:58:36;;;;;;;12.17;4.80;;;;;;;;;;5012353;28;20534;-65
2023/05/26 12:01:03;;;;;;;7.22;4.00;;;;;;;;;;5011454;28;20057;-65
2023/05/26 12:03:33;;;;;;;11.73;4.60;;;;;;;;;;5012524;28;20511;-65
2023/05/26 12:06:07;;;;;;;9.02;4.43;;;;;;;;;;5011263;28;20129;-65
2023/05/26 12:08:47;;;;;;;9.25;4.32;;;;;;;;;;5011956;28;20057;-64
2023/05/26 12:11:22;;;;;;;8.30;3.90;;;;;;;;;;5010062;28;20053;-67
2023/05/26 12:13:55;;;;;;;10.57;4.88;;;;;;;;;;5011910;28;20104;-64
2023/05/26 12:16:24;;;;;;;9.27;4.85;;;;;;;;;;5010711;28;20300;-65
2023/05/26 12:18:53;;;;;;;9.43;4.45;;;;;;;;;;5011673;28;20050;-65
2023/05/26 12:21:20;;;;;;;13.52;4.53;;;;;;;;;;5009495;28;20061;-65
2023/05/26 12:23:48;;;;;;;8.68;4.50;;;;;;;;;;5010834;28;20092;-64
2023/05/26 12:26:15;;;;;;;11.23;4.78;;;;;;;;;;5010990;28;20042;-65
2023/05/26 12:28:42;;;;;;;8.75;4.10;;;;;;;;;;5011213;28;20075;-65
2023/05/26 12:31:08;;;;;;;7.18;3.90;;;;;;;;;;5010943;28;20050;-65
2023/05/26 12:33:35;;;;;;;10.52;4.50;;;;;;;;;;5010950;28;20057;-65
2023/05/26 12:36:01;;;;;;;9.18;4.00;;;;;;;;;;5011829;28;20472;-65
2023/05/26 12:38:28;;;;;;;10.10;4.40;;;;;;;;;;5011107;28;20046;-65
2023/05/26 12:40:56;;;;;;;7.43;4.22;;;;;;;;;;5010519;28;20112;-65
2023/05/26 12:43:23;;;;;;;9.25;4.07;;;;;;;;;;5010749;28;20054;-65
2023/05/26 12:45:49;;;;;;;10.30;4.40;;;;;;;;;;5011199;28;20054;-65
2023/05/26 12:48:16;;;;;;;7.75;3.95;;;;;;;;;;5011070;28;20492;-65
2023/05/26 12:50:42;;;;;;;12.02;4.35;;;;;;;;;;5010705;28;20057;-66
2023/05/26 12:53:09;;;;;;;9.05;4.07;;;;;;;;;;5011278;28;20053;-65
2023/05/26 12:55:36;;;;;;;9.90;3.47;;;;;;;;;;5010644;28;20456;-65
2023/05/26 12:58:04;;;;;;;8.00;3.83;;;;;;;;;;5010981;28;20133;-65
2023/05/26 13:00:31;;;;;;;11.50;3.83;;;;;;;;;;5010402;28;20049;-66
2023/05/26 13:02:58;;;;;;;9.23;3.80;;;;;;;;;;5011279;28;20053;-66
2023/05/26 13:05:24;;;;;;;6.90;3.80;;;;;;;;;;5010472;28;20053;-65
2023/05/26 13:07:51;;;;;;;7.30;3.50;;;;;;;;;;5011035;28;20046;-66
2023/05/26 13:10:17;;;;;;;9.35;3.75;;;;;;;;;;5010792;28;20480;-66
2023/05/26 13:12:44;;;;;;;8.70;3.28;;;;;;;;;;5010864;28;20077;-66
2023/05/26 13:15:12;;;;;;;9.00;3.30;;;;;;;;;;5010667;28;20056;-66
2023/05/26 13:17:39;;;;;;;11.50;3.45;;;;;;;;;;5010951;28;20248;-66
2023/05/26 13:20:07;;;;;;;9.77;3.53;;;;;;;;;;5009904;28;20050;-66
2023/05/26 13:22:35;;;;;;;9.10;4.07;;;;;;;;;;5010557;28;20141;-66
2023/05/26 13:25:02;;;;;;;11.40;3.60;;;;;;;;;;5010644;28;20476;-66
2023/05/26 13:27:28;;;;;;;7.15;3.60;;;;;;;;;;5010004;28;20058;-66
2023/05/26 13:29:55;;;;;;;8.63;3.55;;;;;;;;;;5010283;28;20046;-66
2023/05/26 13:32:23;;;;;;;5.70;3.25;;;;;;;;;;5010196;28;20042;-66
2023/05/26 13:34:50;;;;;;;8.80;3.20;;;;;;;;;;5010309;28;20060;-66
2023/05/26 13:37:16;;;;;;;9.43;3.20;;;;;;;;;;5009772;28;20056;-66
2023/05/26 13:39:43;;;;;;;10.15;3.65;;;;;;;;;;5009657;28;20053;-66
2023/05/26 13:42:09;;;;;;;8.02;3.22;;;;;;;;;;5009780;28;20057;-66
2023/05/26 13:44:36;;;;;;;10.68;3.58;;;;;;;;;;5010570;28;20555;-66
2023/05/26 13:47:02;;;;;;;8.55;3.10;;;;;;;;;;5009637;28;20049;-66
2023/05/26 13:49:30;;;;;;;6.72;2.80;;;;;;;;;;5009991;28;20053;-66
2023/05/26 13:52:02;;;;;;;9.65;3.17;;;;;;;;;;5009898;28;20061;-65
2023/05/26 13:54:28;;;;;;;8.50;2.83;;;;;;;;;;5010285;28;20404;-66
2023/05/26 13:56:55;;;;;;;12.52;3.22;;;;;;;;;;5010497;28;20504;-66
2023/05/26 13:59:21;;;;;;;10.40;3.13;;;;;;;;;;5009660;28;20050;-66
2023/05/26 14:01:49;;;;;;;10.25;3.28;;;;;;;;;;5009926;28;20053;-66
2023/05/26 14:04:15;;;;;;;6.15;3.15;;;;;;;;;;5009821;28;20479;-66
2023/05/26 14:06:43;;;;;;;8.55;2.80;;;;;;;;;;5009796;28;20053;-66
2023/05/26 14:09:10;;;;;;;6.57;2.92;;;;;;;;;;5009929;28;20052;-66
2023/05/26 14:11:39;;;;;;;7.97;3.22;;;;;;;;;;5009883;28;20459;-66
2023/05/26 14:14:05;;;;;;;8.30;3.40;;;;;;;;;;5009633;28;20060;-66
2023/05/26 14:16:32;;;;;;;8.05;3.35;;;;;;;;;;5010634;28;20050;-66
2023/05/26 14:18:58;;;;;;;9.30;3.10;;;;;;;;;;5010033;28;20407;-66
2023/05/26 14:21:27;;;;;;;5.95;2.92;;;;;;;;;;5009594;28;20042;-66
2023/05/26 14:23:55;;;;;;;7.85;3.25;;;;;;;;;;5009804;28;20046;-66
2023/05/26 14:26:22;;;;;;;8.95;3.50;;;;;;;;;;5010088;28;20437;-66
2023/05/26 14:28:48;;;;;;;7.10;3.17;;;;;;;;;;5009645;28;20053;-66
2023/05/26 14:31:15;;;;;;;8.88;3.30;;;;;;;;;;5009531;28;20060;-66
2023/05/26 14:33:42;;;;;;;9.13;3.35;;;;;;;;;;5009725;28;20484;-66
2023/05/26 14:36:09;;;;;;;7.05;3.03;;;;;;;;;;5009495;28;20065;-66
2023/05/26 14:38:35;;;;;;;5.78;2.88;;;;;;;;;;5009885;28;20050;-66